Overview Statistics Trail Chart Weather Telemetry Raw packets
 

This is the latest recevied weather packets stored in our database for station/object OE3TEC-15. If no packets are shown the sender has not sent any weather packets the latest 10 day(s).

<< 1 2 3 4 5 6 7 >>
Time Temp. Humidity Pressure Rain* Wind** Luminosity Snow
1788466247 22.22° C 52% 1021.2 hPa 0 mm - 0 W/m² -
1788465629 22.78° C 50% 1021.2 hPa 0 mm - 0 W/m² -
1788465025 22.22° C 50% 1021 hPa 0 mm - 0 W/m² -
1788461909 23.33° C 47% 1020.4 hPa 0 mm - 0 W/m² -
1788460066 23.33° C 46% 1020.5 hPa 0 mm - 0 W/m² -
1788458838 23.89° C 46% 1020 hPa 0 mm - 0 W/m² -
1788457622 23.89° C 46% 1019.8 hPa 0 mm - 0 W/m² -
1788455141 25° C 43% 1019.5 hPa 0 mm - 7 W/m² -
1788453902 25° C 41% 1019.7 hPa 0 mm - 23 W/m² -
1788452070 25.56° C 42% 1019.4 hPa 0 mm - 35 W/m² -
1788451469 25.56° C 41% 1019.5 hPa 0 mm - 37 W/m² -
1788450861 26.11° C 41% 1019.4 hPa 0 mm - 44 W/m² -
1788450246 26.11° C 41% 1019.2 hPa 0 mm - 49 W/m² -
1788447162 27.22° C 38% 1019.3 hPa 0 mm - 118 W/m² -
1788444680 27.78° C 36% 1019.4 hPa 0 mm - 232 W/m² -
1788440326 26.67° C 39% 1019.7 hPa 0 mm - 172 W/m² -
1788437846 26.11° C 40% 1020.1 hPa 0 mm - 212 W/m² -
1788437242 26.67° C 40% 1020.1 hPa 0 mm - 170 W/m² -
1788436618 26.67° C 39% 1020.3 hPa 0 mm - 297 W/m² -
1788436010 26.11° C 40% 1020.4 hPa 0 mm - 187 W/m² -
1788434142 26.67° C 42% 1020.4 hPa 0 mm - 515 W/m² -
1788432902 26.11° C 44% 1020.7 hPa 0 mm - 300 W/m² -
1788431059 25.56° C 43% 1020.8 hPa 0 mm - 410 W/m² -
1788426771 25.56° C 43% 1021.6 hPa 0 mm - 561 W/m² -
1788426134 25.56° C 45% 1021.7 hPa 0 mm - 546 W/m² -

* Rain latest hour (hover to see other rain measurements)
** Current wind speed in m/s (hover to see current wind gust speed)